Time;durP1;ratioP1;P1;durP2;ratioP2;P2;SDS_P1;SDS_P2;PMS_P1;PMS_P2;Temp;Humidity;BMP_temperature;BMP_pressure;BME280_temperature;BME280_humidity;BME280_pressure;Samples;Min_cycle;Max_cycle;Signal;HPM_P1;HPM_P2
2024/01/14 00:01:04;;;;;;;;;;;;;;;;;;5039488;28;19936;-76
2024/01/14 00:03:29;;;;;;;;;;;;;;;;;;5038766;28;19921;-76
2024/01/14 00:05:54;;;;;;;;;;;;;;;;;;5038228;28;19932;-76
2024/01/14 00:08:19;;;;;;;;;;;;;;;;;;5043507;28;19921;-76
2024/01/14 00:10:44;;;;;;;;;;;;;;;;;;5044155;28;19920;-76
2024/01/14 00:13:09;;;;;;;;;;;;;;;;;;5037394;28;20422;-76
2024/01/14 00:15:34;;;;;;;;;;;;;;;;;;5052530;28;19924;-76
2024/01/14 00:17:59;;;;;;;;;;;;;;;;;;5046555;28;19965;-76
2024/01/14 00:20:24;;;;;;;;;;;;;;;;;;5046061;28;19932;-76
2024/01/14 00:22:49;;;;;;;;;;;;;;;;;;5045628;28;19971;-76
2024/01/14 00:25:15;;;;;;;;;;;;;;;;;;5049833;28;20007;-78
2024/01/14 00:27:40;;;;;;;;;;;;;;;;;;5065203;28;20023;-76
2024/01/14 00:30:08;;;;;;;;;;;;;;;;;;5051304;28;19920;-75
2024/01/14 00:32:33;;;;;;;;;;;;;;;;;;5054499;28;19924;-76
2024/01/14 00:34:58;;;;;;;;;;;;;;;;;;5062175;28;20058;-76
2024/01/14 00:37:23;;;;;;;;;;;;;;;;;;5058099;28;19927;-76
2024/01/14 00:39:49;;;;;;;;;;;;;;;;;;5058523;28;19917;-76
2024/01/14 00:42:14;;;;;;;;;;;;;;;;;;5055030;28;19917;-76
2024/01/14 00:44:39;;;;;;;;;;;;;;;;;;5055163;28;20011;-76
2024/01/14 00:47:04;;;;;;;;;;;;;;;;;;5062582;28;19925;-76
2024/01/14 00:49:32;;;;;;;;;;;;;;;;;;5049600;28;19921;-76
2024/01/14 00:51:57;;;;;;;;;;;;;;;;;;5045061;28;20450;-76
2024/01/14 00:54:23;;;;;;;;;;;;;;;;;;5047450;28;20417;-76
2024/01/14 00:56:48;;;;;;;;;;;;;;;;;;5035717;28;19971;-75
2024/01/14 00:59:13;;;;;;;;;;;;;;;;;;5044970;28;20355;-76
2024/01/14 01:01:38;;;;;;;;;;;;;;;;;;5046212;28;19928;-76
2024/01/14 01:04:03;;;;;;;;;;;;;;;;;;5048187;28;19967;-76
2024/01/14 01:06:28;;;;;;;;;;;;;;;;;;5053080;28;20341;-76
2024/01/14 01:08:53;;;;;;;;;;;;;;;;;;5040388;28;20305;-76
2024/01/14 01:11:18;;;;;;;;;;;;;;;;;;5039682;28;19952;-76
2024/01/14 01:13:43;;;;;;;;;;;;;;;;;;5041381;28;20347;-76
2024/01/14 01:16:08;;;;;;;;;;;;;;;;;;5046882;28;19966;-76
2024/01/14 01:18:34;;;;;;;;;;;;;;;;;;5047037;28;19987;-76
2024/01/14 01:20:59;;;;;;;;;;;;;;;;;;5065672;28;20383;-76
2024/01/14 01:23:25;;;;;;;;;;;;;;;;;;5048839;28;20154;-76
2024/01/14 01:25:50;;;;;;;;;;;;;;;;;;5057253;28;19932;-76
2024/01/14 01:28:16;;;;;;;;;;;;;;;;;;5061289;28;20662;-76
2024/01/14 01:30:41;;;;;;;;;;;;;;;;;;5061863;28;19925;-76
2024/01/14 01:33:06;;;;;;;;;;;;;;;;;;5058838;28;20442;-76
2024/01/14 01:35:32;;;;;;;;;;;;;;;;;;5031301;28;19920;-75
2024/01/14 01:37:58;;;;;;;;;;;;;;;;;;5043173;28;20353;-76
2024/01/14 01:40:23;;;;;;;;;;;;;;;;;;5053895;28;19921;-76
2024/01/14 01:42:49;;;;;;;;;;;;;;;;;;5043158;28;19920;-76
2024/01/14 01:45:14;;;;;;;;;;;;;;;;;;5044535;28;19932;-75
2024/01/14 01:47:39;;;;;;;;;;;;;;;;;;5054270;28;19924;-76
2024/01/14 01:50:05;;;;;;;;;;;;;;;;;;5054427;28;20393;-77
2024/01/14 01:52:30;;;;;;;;;;;;;;;;;;5059298;28;19921;-76
2024/01/14 01:54:55;;;;;;;;;;;;;;;;;;5047220;28;19921;-76
2024/01/14 01:57:20;;;;;;;;;;;;;;;;;;5048265;28;19990;-76
2024/01/14 01:59:45;;;;;;;;;;;;;;;;;;5050140;28;19929;-76
2024/01/14 02:02:10;;;;;;;;;;;;;;;;;;5046995;28;19922;-76
2024/01/14 02:04:35;;;;;;;;;;;;;;;;;;5048077;28;19952;-76
2024/01/14 02:07:00;;;;;;;;;;;;;;;;;;5054196;28;20019;-76
2024/01/14 02:09:25;;;;;;;;;;;;;;;;;;5054349;28;19999;-76
2024/01/14 02:11:51;;;;;;;;;;;;;;;;;;5049539;28;19929;-76
2024/01/14 02:14:16;;;;;;;;;;;;;;;;;;5065581;28;19985;-75
2024/01/14 02:16:41;;;;;;;;;;;;;;;;;;5054046;28;20201;-76
2024/01/14 02:19:06;;;;;;;;;;;;;;;;;;5040354;28;19928;-76
2024/01/14 02:21:31;;;;;;;;;;;;;;;;;;5035779;28;19932;-76
2024/01/14 02:23:56;;;;;;;;;;;;;;;;;;5048575;28;19976;-76
2024/01/14 02:26:21;;;;;;;;;;;;;;;;;;5038742;28;19934;-75
2024/01/14 02:28:46;;;;;;;;;;;;;;;;;;5063236;28;19943;-76
2024/01/14 02:31:11;;;;;;;;;;;;;;;;;;5047938;28;19929;-76
2024/01/14 02:33:37;;;;;;;;;;;;;;;;;;5051932;28;19933;-76
2024/01/14 02:36:02;;;;;;;;;;;;;;;;;;5046507;28;19920;-75
2024/01/14 02:38:27;;;;;;;;;;;;;;;;;;5048074;28;20344;-76
2024/01/14 02:40:52;;;;;;;;;;;;;;;;;;5049323;28;19920;-76
2024/01/14 02:43:17;;;;;;;;;;;;;;;;;;5042217;28;19963;-76
2024/01/14 02:45:42;;;;;;;;;;;;;;;;;;5047697;28;20016;-76
2024/01/14 02:48:07;;;;;;;;;;;;;;;;;;5050263;28;19921;-77
2024/01/14 02:50:32;;;;;;;;;;;;;;;;;;5046959;28;20293;-76
2024/01/14 02:52:57;;;;;;;;;;;;;;;;;;5043258;28;19971;-76
2024/01/14 02:55:22;;;;;;;;;;;;;;;;;;5037757;28;20332;-76
2024/01/14 02:57:49;;;;;;;;;;;;;;;;;;5051732;28;19927;-76
2024/01/14 03:00:14;;;;;;;;;;;;;;;;;;5048257;28;19956;-76
2024/01/14 03:02:39;;;;;;;;;;;;;;;;;;5060679;28;19951;-76
2024/01/14 03:05:04;;;;;;;;;;;;;;;;;;5051981;28;19927;-76
2024/01/14 03:07:32;;;;;;;;;;;;;;;;;;5051876;28;19932;-76
2024/01/14 03:09:57;;;;;;;;;;;;;;;;;;5051584;28;19975;-76
2024/01/14 03:12:22;;;;;;;;;;;;;;;;;;5061620;28;19951;-76
2024/01/14 03:14:47;;;;;;;;;;;;;;;;;;5052872;28;20019;-76
2024/01/14 03:17:12;;;;;;;;;;;;;;;;;;5047857;28;19960;-76
2024/01/14 03:19:37;;;;;;;;;;;;;;;;;;5040425;28;19927;-76
2024/01/14 03:22:02;;;;;;;;;;;;;;;;;;5046687;28;20007;-77
2024/01/14 03:24:27;;;;;;;;;;;;;;;;;;5057910;28;19927;-77
2024/01/14 03:26:52;;;;;;;;;;;;;;;;;;5053035;28;19932;-77
2024/01/14 03:29:21;;;;;;;;;;;;;;;;;;5037013;28;20182;-77
2024/01/14 03:31:46;;;;;;;;;;;;;;;;;;5050419;28;19954;-77
2024/01/14 03:34:13;;;;;;;;;;;;;;;;;;5069335;28;19920;-77
2024/01/14 03:36:38;;;;;;;;;;;;;;;;;;5055414;28;19974;-77
2024/01/14 03:39:03;;;;;;;;;;;;;;;;;;5045885;28;20020;-77
2024/01/14 03:41:28;;;;;;;;;;;;;;;;;;5047525;28;20085;-77
2024/01/14 03:43:54;;;;;;;;;;;;;;;;;;5052529;28;19936;-77
2024/01/14 03:46:19;;;;;;;;;;;;;;;;;;5049531;28;19967;-77
2024/01/14 03:48:44;;;;;;;;;;;;;;;;;;5064851;28;20397;-77
2024/01/14 03:51:09;;;;;;;;;;;;;;;;;;5050134;28;19921;-77
2024/01/14 03:53:34;;;;;;;;;;;;;;;;;;5047600;28;19964;-76
2024/01/14 03:56:02;;;;;;;;;;;;;;;;;;5041569;28;20020;-76
2024/01/14 03:58:27;;;;;;;;;;;;;;;;;;5046360;28;19928;-76
2024/01/14 04:00:52;;;;;;;;;;;;;;;;;;5044977;28;19924;-77
2024/01/14 04:03:17;;;;;;;;;;;;;;;;;;5047350;28;19952;-76
2024/01/14 04:05:42;;;;;;;;;;;;;;;;;;5045053;28;21459;-76
2024/01/14 04:08:08;;;;;;;;;;;;;;;;;;5051511;28;19928;-77
2024/01/14 04:10:33;;;;;;;;;;;;;;;;;;5057132;28;19920;-77
2024/01/14 04:12:58;;;;;;;;;;;;;;;;;;5050464;28;20008;-77
2024/01/14 04:15:23;;;;;;;;;;;;;;;;;;5050457;28;20219;-76
2024/01/14 04:17:48;;;;;;;;;;;;;;;;;;5044894;28;19921;-76
2024/01/14 04:20:15;;;;;;;;;;;;;;;;;;5047196;28;19923;-76
2024/01/14 04:22:41;;;;;;;;;;;;;;;;;;5057592;28;19928;-76
2024/01/14 04:25:06;;;;;;;;;;;;;;;;;;5056300;28;19920;-76
2024/01/14 04:27:31;;;;;;;;;;;;;;;;;;5058628;28;19980;-76
2024/01/14 04:29:56;;;;;;;;;;;;;;;;;;5054061;28;19948;-76
2024/01/14 04:32:21;;;;;;;;;;;;;;;;;;5056600;28;19928;-77
2024/01/14 04:34:46;;;;;;;;;;;;;;;;;;5056144;28;20262;-77
2024/01/14 04:37:11;;;;;;;;;;;;;;;;;;5051631;28;20448;-77
2024/01/14 04:39:36;;;;;;;;;;;;;;;;;;5052979;28;20309;-76
2024/01/14 04:42:01;;;;;;;;;;;;;;;;;;5047397;28;19945;-76
2024/01/14 04:44:27;;;;;;;;;;;;;;;;;;5050129;28;20404;-77
2024/01/14 04:46:52;;;;;;;;;;;;;;;;;;5051301;28;19925;-76
2024/01/14 04:49:17;;;;;;;;;;;;;;;;;;5050996;28;20358;-77
2024/01/14 04:51:42;;;;;;;;;;;;;;;;;;5047108;28;20927;-76
2024/01/14 04:54:07;;;;;;;;;;;;;;;;;;5044287;28;19916;-77
2024/01/14 04:56:32;;;;;;;;;;;;;;;;;;5049850;28;19917;-77
2024/01/14 04:58:57;;;;;;;;;;;;;;;;;;5058435;28;19917;-77
2024/01/14 05:01:22;;;;;;;;;;;;;;;;;;5050790;28;19917;-77
2024/01/14 05:03:47;;;;;;;;;;;;;;;;;;5043821;28;19951;-77
2024/01/14 05:06:13;;;;;;;;;;;;;;;;;;5046630;28;20289;-77
2024/01/14 05:08:38;;;;;;;;;;;;;;;;;;5047553;28;20043;-76
2024/01/14 05:11:03;;;;;;;;;;;;;;;;;;5050839;28;20307;-77
2024/01/14 05:13:28;;;;;;;;;;;;;;;;;;5046910;28;20297;-77
2024/01/14 05:15:53;;;;;;;;;;;;;;;;;;5060854;28;19949;-77
2024/01/14 05:18:18;;;;;;;;;;;;;;;;;;5041132;28;20050;-77
2024/01/14 05:20:43;;;;;;;;;;;;;;;;;;5051986;28;20028;-77
2024/01/14 05:23:08;;;;;;;;;;;;;;;;;;5049708;28;19917;-77
2024/01/14 05:25:33;;;;;;;;;;;;;;;;;;5049744;28;20297;-77
2024/01/14 05:27:58;;;;;;;;;;;;;;;;;;5053515;28;20309;-76
2024/01/14 05:30:24;;;;;;;;;;;;;;;;;;5050350;28;19917;-76
2024/01/14 05:32:49;;;;;;;;;;;;;;;;;;5049325;28;19919;-77
2024/01/14 05:35:14;;;;;;;;;;;;;;;;;;5056072;28;19924;-77
2024/01/14 05:37:39;;;;;;;;;;;;;;;;;;5049739;28;19929;-76
2024/01/14 05:40:05;;;;;;;;;;;;;;;;;;5045972;28;19947;-77
2024/01/14 05:42:30;;;;;;;;;;;;;;;;;;5055837;28;19924;-76
2024/01/14 05:44:55;;;;;;;;;;;;;;;;;;5044740;28;19916;-77
2024/01/14 05:47:20;;;;;;;;;;;;;;;;;;5053345;28;19921;-77
2024/01/14 05:49:45;;;;;;;;;;;;;;;;;;5047093;28;19956;-76
2024/01/14 05:52:10;;;;;;;;;;;;;;;;;;5047190;28;20425;-77
2024/01/14 05:54:35;;;;;;;;;;;;;;;;;;5047046;28;20004;-77
2024/01/14 05:57:00;;;;;;;;;;;;;;;;;;5047417;28;19917;-76
2024/01/14 05:59:26;;;;;;;;;;;;;;;;;;5057094;28;19943;-76
2024/01/14 06:01:51;;;;;;;;;;;;;;;;;;5047951;28;19940;-76
2024/01/14 06:04:16;;;;;;;;;;;;;;;;;;5051360;28;19916;-76
2024/01/14 06:06:41;;;;;;;;;;;;;;;;;;5047117;28;19927;-76
2024/01/14 06:09:06;;;;;;;;;;;;;;;;;;5047631;28;19920;-77
2024/01/14 06:11:31;;;;;;;;;;;;;;;;;;5057883;28;19924;-77
2024/01/14 06:13:56;;;;;;;;;;;;;;;;;;5042809;28;19978;-76
2024/01/14 06:16:21;;;;;;;;;;;;;;;;;;5049340;28;19913;-77
2024/01/14 06:18:46;;;;;;;;;;;;;;;;;;5052124;28;19924;-76
2024/01/14 06:21:11;;;;;;;;;;;;;;;;;;5052140;28;19917;-77
2024/01/14 06:23:37;;;;;;;;;;;;;;;;;;5050170;28;19947;-77
2024/01/14 06:26:02;;;;;;;;;;;;;;;;;;5049161;28;20039;-76
2024/01/14 06:28:27;;;;;;;;;;;;;;;;;;5042264;28;20304;-76
2024/01/14 06:30:52;;;;;;;;;;;;;;;;;;5042487;28;19926;-76
2024/01/14 06:33:17;;;;;;;;;;;;;;;;;;5064213;28;19916;-76
2024/01/14 06:35:42;;;;;;;;;;;;;;;;;;5050538;28;19939;-76
2024/01/14 06:38:08;;;;;;;;;;;;;;;;;;5050695;28;19916;-77
2024/01/14 06:40:33;;;;;;;;;;;;;;;;;;5047533;28;19925;-77
2024/01/14 06:42:58;;;;;;;;;;;;;;;;;;5049910;28;19928;-76
2024/01/14 06:45:23;;;;;;;;;;;;;;;;;;5048409;28;19916;-76
2024/01/14 06:47:48;;;;;;;;;;;;;;;;;;5049475;28;20391;-77
2024/01/14 06:50:13;;;;;;;;;;;;;;;;;;5037585;28;19962;-77
2024/01/14 06:52:38;;;;;;;;;;;;;;;;;;5052358;28;19973;-77
2024/01/14 06:55:04;;;;;;;;;;;;;;;;;;5061729;28;19921;-76
2024/01/14 06:57:29;;;;;;;;;;;;;;;;;;5046830;28;19925;-76
2024/01/14 06:59:54;;;;;;;;;;;;;;;;;;5048521;28;19928;-76
2024/01/14 07:02:19;;;;;;;;;;;;;;;;;;5040429;28;19960;-76
2024/01/14 07:04:44;;;;;;;;;;;;;;;;;;5049112;28;19936;-77
2024/01/14 07:07:10;;;;;;;;;;;;;;;;;;5047213;28;20398;-77
2024/01/14 07:09:35;;;;;;;;;;;;;;;;;;5063964;28;20259;-77
2024/01/14 07:12:00;;;;;;;;;;;;;;;;;;5045461;28;19978;-76
2024/01/14 07:14:25;;;;;;;;;;;;;;;;;;5044155;28;20312;-76
2024/01/14 07:16:50;;;;;;;;;;;;;;;;;;5050792;28;20288;-76
2024/01/14 07:19:15;;;;;;;;;;;;;;;;;;5051267;28;20157;-76
2024/01/14 07:21:40;;;;;;;;;;;;;;;;;;5045239;28;20382;-76
2024/01/14 07:24:06;;;;;;;;;;;;;;;;;;5033392;28;20256;-77
2024/01/14 07:26:31;;;;;;;;;;;;;;;;;;5039810;28;19983;-76
2024/01/14 07:28:56;;;;;;;;;;;;;;;;;;5049838;28;20373;-76
2024/01/14 07:31:21;;;;;;;;;;;;;;;;;;5054469;28;20026;-76
2024/01/14 07:33:46;;;;;;;;;;;;;;;;;;5043348;28;20349;-75
2024/01/14 07:36:11;;;;;;;;;;;;;;;;;;5039736;28;19924;-76
2024/01/14 07:38:36;;;;;;;;;;;;;;;;;;5047043;28;19939;-76
2024/01/14 07:41:01;;;;;;;;;;;;;;;;;;5052761;28;19922;-76
2024/01/14 07:43:27;;;;;;;;;;;;;;;;;;5041595;28;19917;-75
2024/01/14 07:45:52;;;;;;;;;;;;;;;;;;5042517;28;19920;-76
2024/01/14 07:48:17;;;;;;;;;;;;;;;;;;5049856;28;19999;-76
2024/01/14 07:50:42;;;;;;;;;;;;;;;;;;5045380;28;19917;-75
2024/01/14 07:53:09;;;;;;;;;;;;;;;;;;5045216;28;19996;-75
2024/01/14 07:55:34;;;;;;;;;;;;;;;;;;5050624;28;19924;-75
2024/01/14 07:57:59;;;;;;;;;;;;;;;;;;5051220;28;19944;-75
2024/01/14 08:00:24;;;;;;;;;;;;;;;;;;5046449;28;19917;-76
2024/01/14 08:02:49;;;;;;;;;;;;;;;;;;5049958;28;20381;-76
2024/01/14 08:05:15;;;;;;;;;;;;;;;;;;5044006;28;19966;-76
2024/01/14 08:07:40;;;;;;;;;;;;;;;;;;5053709;28;19927;-76
2024/01/14 08:10:05;;;;;;;;;;;;;;;;;;5047936;28;19921;-76
2024/01/14 08:12:30;;;;;;;;;;;;;;;;;;5047975;28;20495;-76
2024/01/14 08:14:56;;;;;;;;;;;;;;;;;;5046664;28;20396;-76
2024/01/14 08:17:21;;;;;;;;;;;;;;;;;;5059608;28;19917;-76
2024/01/14 08:19:46;;;;;;;;;;;;;;;;;;5048590;28;19921;-76
2024/01/14 08:22:11;;;;;;;;;;;;;;;;;;5042900;28;19917;-76
2024/01/14 08:24:36;;;;;;;;;;;;;;;;;;5054744;28;19935;-76
2024/01/14 08:27:01;;;;;;;;;;;;;;;;;;5048704;28;20015;-76
2024/01/14 08:29:26;;;;;;;;;;;;;;;;;;5041813;28;20328;-76
2024/01/14 08:31:51;;;;;;;;;;;;;;;;;;5044100;28;19923;-78
2024/01/14 08:34:16;;;;;;;;;;;;;;;;;;5043261;28;19924;-76
2024/01/14 08:36:41;;;;;;;;;;;;;;;;;;5043864;28;20059;-76
2024/01/14 08:39:06;;;;;;;;;;;;;;;;;;5048652;28;19920;-76
2024/01/14 08:41:32;;;;;;;;;;;;;;;;;;5045379;28;19917;-76
2024/01/14 08:43:59;;;;;;;;;;;;;;;;;;5049761;28;19936;-76
2024/01/14 08:46:24;;;;;;;;;;;;;;;;;;5046165;28;19973;-76
2024/01/14 08:48:49;;;;;;;;;;;;;;;;;;5049329;28;20020;-78
2024/01/14 08:51:14;;;;;;;;;;;;;;;;;;5048902;28;19921;-78
2024/01/14 08:53:39;;;;;;;;;;;;;;;;;;5054580;28;20317;-76
2024/01/14 08:56:05;;;;;;;;;;;;;;;;;;5050915;28;19920;-78
2024/01/14 08:58:30;;;;;;;;;;;;;;;;;;5058808;28;20379;-76
2024/01/14 09:00:55;;;;;;;;;;;;;;;;;;5051520;28;19917;-76
2024/01/14 09:03:20;;;;;;;;;;;;;;;;;;5053078;28;19924;-76
2024/01/14 09:05:45;;;;;;;;;;;;;;;;;;5054002;28;20385;-76
2024/01/14 09:08:11;;;;;;;;;;;;;;;;;;5064883;28;19924;-76
2024/01/14 09:10:36;;;;;;;;;;;;;;;;;;5052060;28;19917;-78
2024/01/14 09:13:01;;;;;;;;;;;;;;;;;;5052137;28;19951;-76
2024/01/14 09:15:26;;;;;;;;;;;;;;;;;;5052024;28;19978;-77
2024/01/14 09:17:51;;;;;;;;;;;;;;;;;;5052352;28;19943;-77
2024/01/14 09:20:16;;;;;;;;;;;;;;;;;;5050498;28;19920;-77
2024/01/14 09:22:41;;;;;;;;;;;;;;;;;;5054479;28;20330;-77
2024/01/14 09:25:06;;;;;;;;;;;;;;;;;;5066502;28;19913;-77
2024/01/14 09:27:32;;;;;;;;;;;;;;;;;;5056457;28;20011;-77
2024/01/14 09:29:57;;;;;;;;;;;;;;;;;;5052516;28;19935;-76
2024/01/14 09:32:22;;;;;;;;;;;;;;;;;;5051287;28;19999;-77
2024/01/14 09:34:47;;;;;;;;;;;;;;;;;;5051835;28;19916;-77
2024/01/14 09:37:13;;;;;;;;;;;;;;;;;;5059270;28;20146;-77
2024/01/14 09:39:38;;;;;;;;;;;;;;;;;;5054248;28;19924;-77
2024/01/14 09:42:04;;;;;;;;;;;;;;;;;;5047270;28;20289;-77
2024/01/14 09:44:29;;;;;;;;;;;;;;;;;;5049505;28;19916;-77
2024/01/14 09:46:54;;;;;;;;;;;;;;;;;;5049123;28;19979;-76
2024/01/14 09:49:21;;;;;;;;;;;;;;;;;;5048255;28;19917;-77
2024/01/14 09:51:47;;;;;;;;;;;;;;;;;;5048687;28;19947;-77
2024/01/14 09:54:12;;;;;;;;;;;;;;;;;;5049487;28;19924;-77
2024/01/14 09:56:38;;;;;;;;;;;;;;;;;;5063718;28;20002;-76
2024/01/14 09:59:03;;;;;;;;;;;;;;;;;;5057033;28;20376;-76
2024/01/14 10:01:31;;;;;;;;;;;;;;;;;;5049718;28;19916;-76
2024/01/14 10:03:56;;;;;;;;;;;;;;;;;;5050525;28;19921;-76
2024/01/14 10:06:21;;;;;;;;;;;;;;;;;;5050208;28;20003;-76
2024/01/14 10:08:46;;;;;;;;;;;;;;;;;;5046960;28;20263;-76
2024/01/14 10:11:11;;;;;;;;;;;;;;;;;;5046069;28;20396;-75
2024/01/14 10:13:36;;;;;;;;;;;;;;;;;;5045335;28;19952;-76
2024/01/14 10:16:04;;;;;;;;;;;;;;;;;;5046199;28;19990;-75
2024/01/14 10:18:29;;;;;;;;;;;;;;;;;;5046802;28;20289;-75
2024/01/14 10:20:54;;;;;;;;;;;;;;;;;;5060468;28;20403;-75
2024/01/14 10:23:19;;;;;;;;;;;;;;;;;;5045820;28;19927;-75
2024/01/14 10:25:44;;;;;;;;;;;;;;;;;;5041544;28;19917;-76
2024/01/14 10:28:09;;;;;;;;;;;;;;;;;;5052403;28;19923;-76
2024/01/14 10:30:35;;;;;;;;;;;;;;;;;;5047475;28;19917;-76
2024/01/14 10:33:00;;;;;;;;;;;;;;;;;;5044979;28;19917;-75
2024/01/14 10:35:25;;;;;;;;;;;;;;;;;;5050089;28;20369;-76
2024/01/14 10:37:50;;;;;;;;;;;;;;;;;;5049119;28;20413;-76
2024/01/14 10:40:15;;;;;;;;;;;;;;;;;;5046445;28;19924;-76
2024/01/14 10:42:40;;;;;;;;;;;;;;;;;;5051485;28;19925;-76
2024/01/14 10:45:06;;;;;;;;;;;;;;;;;;5047622;28;20313;-75
2024/01/14 10:47:31;;;;;;;;;;;;;;;;;;5036359;28;19921;-75
2024/01/14 10:49:56;;;;;;;;;;;;;;;;;;5048542;28;19973;-75
2024/01/14 10:52:21;;;;;;;;;;;;;;;;;;5048671;28;20335;-75
2024/01/14 10:54:46;;;;;;;;;;;;;;;;;;5049567;28;19927;-75
2024/01/14 10:57:11;;;;;;;;;;;;;;;;;;5047621;28;19925;-75
2024/01/14 10:59:37;;;;;;;;;;;;;;;;;;5043412;28;20290;-75
2024/01/14 11:02:02;;;;;;;;;;;;;;;;;;5042096;28;19917;-77
2024/01/14 11:04:27;;;;;;;;;;;;;;;;;;5050371;28;19912;-75
2024/01/14 11:06:55;;;;;;;;;;;;;;;;;;5049576;28;19925;-75
2024/01/14 11:09:20;;;;;;;;;;;;;;;;;;5042884;28;20007;-75
2024/01/14 11:11:45;;;;;;;;;;;;;;;;;;5049908;28;20008;-75
2024/01/14 11:14:10;;;;;;;;;;;;;;;;;;5050317;28;19913;-76
2024/01/14 11:16:35;;;;;;;;;;;;;;;;;;5049877;28;20240;-75
2024/01/14 11:19:00;;;;;;;;;;;;;;;;;;5056634;28;19916;-75
2024/01/14 11:21:26;;;;;;;;;;;;;;;;;;5037627;28;19927;-75
2024/01/14 11:23:51;;;;;;;;;;;;;;;;;;5045669;28;19923;-75
2024/01/14 11:26:16;;;;;;;;;;;;;;;;;;5054360;28;20118;-75
2024/01/14 11:28:41;;;;;;;;;;;;;;;;;;5045608;28;20000;-75
2024/01/14 11:31:07;;;;;;;;;;;;;;;;;;5048853;28;20005;-75
2024/01/14 11:33:32;;;;;;;;;;;;;;;;;;5045217;28;19936;-75
2024/01/14 11:35:57;;;;;;;;;;;;;;;;;;5042364;28;19921;-76
2024/01/14 11:38:22;;;;;;;;;;;;;;;;;;5046583;28;20373;-76
2024/01/14 11:40:47;;;;;;;;;;;;;;;;;;5046975;28;20450;-76
2024/01/14 11:43:13;;;;;;;;;;;;;;;;;;5045490;28;20527;-76
2024/01/14 11:45:38;;;;;;;;;;;;;;;;;;5042442;28;19962;-76
2024/01/14 11:48:06;;;;;;;;;;;;;;;;;;5047367;28;19921;-76
2024/01/14 11:50:32;;;;;;;;;;;;;;;;;;5033556;28;19926;-76
2024/01/14 11:52:57;;;;;;;;;;;;;;;;;;5047391;28;20293;-75
2024/01/14 11:55:22;;;;;;;;;;;;;;;;;;5044039;28;19923;-76
2024/01/14 11:57:47;;;;;;;;;;;;;;;;;;5045698;28;19948;-76
2024/01/14 12:00:12;;;;;;;;;;;;;;;;;;5043756;28;20004;-75
2024/01/14 12:02:37;;;;;;;;;;;;;;;;;;5023263;28;19975;-76
2024/01/14 12:05:03;;;;;;;;;;;;;;;;;;5035923;28;20003;-76
2024/01/14 12:07:28;;;;;;;;;;;;;;;;;;5044949;28;19933;-76
2024/01/14 12:09:53;;;;;;;;;;;;;;;;;;5025161;28;19967;-76
2024/01/14 12:12:18;;;;;;;;;;;;;;;;;;5024260;28;20333;-76
2024/01/14 12:14:43;;;;;;;;;;;;;;;;;;5027022;28;19924;-76
2024/01/14 12:17:08;;;;;;;;;;;;;;;;;;5028080;28;20015;-76
2024/01/14 12:19:34;;;;;;;;;;;;;;;;;;5028124;28;20483;-76
2024/01/14 12:21:59;;;;;;;;;;;;;;;;;;5029693;28;19932;-76
2024/01/14 12:24:24;;;;;;;;;;;;;;;;;;5026891;28;19924;-76
2024/01/14 12:26:49;;;;;;;;;;;;;;;;;;5033348;28;19944;-76
2024/01/14 12:29:14;;;;;;;;;;;;;;;;;;5050625;28;20003;-75
2024/01/14 12:31:39;;;;;;;;;;;;;;;;;;5049579;28;19920;-76
2024/01/14 12:34:05;;;;;;;;;;;;;;;;;;5061331;28;19994;-76
2024/01/14 12:36:30;;;;;;;;;;;;;;;;;;5048542;28;20401;-76
2024/01/14 12:38:56;;;;;;;;;;;;;;;;;;5064410;28;19925;-76
2024/01/14 12:41:21;;;;;;;;;;;;;;;;;;5043402;28;19931;-76
2024/01/14 12:43:46;;;;;;;;;;;;;;;;;;5033017;28;19925;-76
2024/01/14 12:46:11;;;;;;;;;;;;;;;;;;5028450;28;19936;-76
2024/01/14 12:48:36;;;;;;;;;;;;;;;;;;5031451;28;19925;-76
2024/01/14 12:51:03;;;;;;;;;;;;;;;;;;5036754;28;20294;-76
2024/01/14 12:53:29;;;;;;;;;;;;;;;;;;5037615;28;20000;-76
2024/01/14 12:55:54;;;;;;;;;;;;;;;;;;5046917;28;20012;-76
2024/01/14 12:58:19;;;;;;;;;;;;;;;;;;5055612;28;20424;-76
2024/01/14 13:00:44;;;;;;;;;;;;;;;;;;5045888;28;20358;-76
2024/01/14 13:03:09;;;;;;;;;;;;;;;;;;5033348;28;19928;-76
2024/01/14 13:05:34;;;;;;;;;;;;;;;;;;5022420;28;19929;-76
2024/01/14 13:07:59;;;;;;;;;;;;;;;;;;5029387;28;19927;-76
2024/01/14 13:10:24;;;;;;;;;;;;;;;;;;5034232;28;19929;-76
2024/01/14 13:12:49;;;;;;;;;;;;;;;;;;5034565;28;20366;-75
2024/01/14 13:15:15;;;;;;;;;;;;;;;;;;5026688;28;20390;-76
2024/01/14 13:17:41;;;;;;;;;;;;;;;;;;5025075;28;20030;-75
2024/01/14 13:20:08;;;;;;;;;;;;;;;;;;5026474;28;19932;-77
2024/01/14 13:22:33;;;;;;;;;;;;;;;;;;5030854;28;19944;-76
2024/01/14 13:24:58;;;;;;;;;;;;;;;;;;5038283;28;20378;-76
2024/01/14 13:27:23;;;;;;;;;;;;;;;;;;5047488;28;20370;-75
2024/01/14 13:29:49;;;;;;;;;;;;;;;;;;5041564;28;19964;-75
2024/01/14 13:32:16;;;;;;;;;;;;;;;;;;5045017;28;19975;-76
2024/01/14 13:34:41;;;;;;;;;;;;;;;;;;5044003;28;19928;-75
2024/01/14 13:37:06;;;;;;;;;;;;;;;;;;5046392;28;19921;-73
2024/01/14 13:39:31;;;;;;;;;;;;;;;;;;5046019;28;20340;-75
2024/01/14 13:41:57;;;;;;;;;;;;;;;;;;5049390;28;19967;-75
2024/01/14 13:44:23;;;;;;;;;;;;;;;;;;5051369;28;19960;-75
2024/01/14 13:46:48;;;;;;;;;;;;;;;;;;5041677;28;19931;-75
2024/01/14 13:49:14;;;;;;;;;;;;;;;;;;5024605;28;19940;-75
2024/01/14 13:51:39;;;;;;;;;;;;;;;;;;5028577;28;19984;-75
2024/01/14 13:54:04;;;;;;;;;;;;;;;;;;5024469;28;19929;-75
2024/01/14 13:56:29;;;;;;;;;;;;;;;;;;5028955;28;20285;-75
2024/01/14 13:58:54;;;;;;;;;;;;;;;;;;5025755;28;20378;-75
2024/01/14 14:01:19;;;;;;;;;;;;;;;;;;5029081;28;19957;-75
2024/01/14 14:03:44;;;;;;;;;;;;;;;;;;5028546;28;19921;-75
2024/01/14 14:06:09;;;;;;;;;;;;;;;;;;5029115;28;19979;-75
2024/01/14 14:08:34;;;;;;;;;;;;;;;;;;5025269;28;19925;-75
2024/01/14 14:10:59;;;;;;;;;;;;;;;;;;5034590;28;19926;-75
2024/01/14 14:13:25;;;;;;;;;;;;;;;;;;5026957;28;20378;-75
2024/01/14 14:15:50;;;;;;;;;;;;;;;;;;5028447;28;20007;-75
2024/01/14 14:18:15;;;;;;;;;;;;;;;;;;5032221;28;19924;-75
2024/01/14 14:20:40;;;;;;;;;;;;;;;;;;5025779;28;19929;-75
2024/01/14 14:23:05;;;;;;;;;;;;;;;;;;5026549;28;19925;-74
2024/01/14 14:25:30;;;;;;;;;;;;;;;;;;5041510;28;19956;-75
2024/01/14 14:27:55;;;;;;;;;;;;;;;;;;5044029;28;19925;-75
2024/01/14 14:30:23;;;;;;;;;;;;;;;;;;5028467;28;20010;-75
2024/01/14 14:32:48;;;;;;;;;;;;;;;;;;5026140;28;19957;-75
2024/01/14 14:35:14;;;;;;;;;;;;;;;;;;5025763;28;19948;-75
2024/01/14 14:37:39;;;;;;;;;;;;;;;;;;5022412;28;19928;-75
2024/01/14 14:40:04;;;;;;;;;;;;;;;;;;5025285;28;20374;-75
2024/01/14 14:42:30;;;;;;;;;;;;;;;;;;5029298;28;19974;-75
2024/01/14 14:44:55;;;;;;;;;;;;;;;;;;5029996;28;19925;-75
2024/01/14 14:47:20;;;;;;;;;;;;;;;;;;5016907;28;19925;-75
2024/01/14 14:49:45;;;;;;;;;;;;;;;;;;5035024;28;19929;-75
2024/01/14 14:52:10;;;;;;;;;;;;;;;;;;5045231;28;19929;-76
2024/01/14 14:54:35;;;;;;;;;;;;;;;;;;5042782;28;19925;-76
2024/01/14 14:57:00;;;;;;;;;;;;;;;;;;5062737;28;19931;-76
2024/01/14 14:59:25;;;;;;;;;;;;;;;;;;5060756;28;19929;-76
2024/01/14 15:01:50;;;;;;;;;;;;;;;;;;5029917;28;19971;-76
2024/01/14 15:04:16;;;;;;;;;;;;;;;;;;5031155;28;19925;-76
2024/01/14 15:06:41;;;;;;;;;;;;;;;;;;5025035;28;19925;-76
2024/01/14 15:09:07;;;;;;;;;;;;;;;;;;5027914;28;19971;-76
2024/01/14 15:11:32;;;;;;;;;;;;;;;;;;5024637;28;20009;-76
2024/01/14 15:13:57;;;;;;;;;;;;;;;;;;5025571;28;19992;-76
2024/01/14 15:16:22;;;;;;;;;;;;;;;;;;5026633;28;19927;-76
2024/01/14 15:18:47;;;;;;;;;;;;;;;;;;5024998;28;19927;-76
2024/01/14 15:21:12;;;;;;;;;;;;;;;;;;5036068;28;19928;-76
2024/01/14 15:23:37;;;;;;;;;;;;;;;;;;5028486;28;20000;-77
2024/01/14 15:26:03;;;;;;;;;;;;;;;;;;5016259;28;19952;-77
2024/01/14 15:28:30;;;;;;;;;;;;;;;;;;5029801;28;20146;-77
2024/01/14 15:30:55;;;;;;;;;;;;;;;;;;5024563;28;20020;-77
2024/01/14 15:33:20;;;;;;;;;;;;;;;;;;5029964;28;20003;-77
2024/01/14 15:35:45;;;;;;;;;;;;;;;;;;5030316;28;19925;-77
2024/01/14 15:38:10;;;;;;;;;;;;;;;;;;5026585;28;19921;-77
2024/01/14 15:40:35;;;;;;;;;;;;;;;;;;5022697;28;19932;-77
2024/01/14 15:43:01;;;;;;;;;;;;;;;;;;5026413;28;20382;-77
2024/01/14 15:45:26;;;;;;;;;;;;;;;;;;5032703;28;19983;-77
2024/01/14 15:47:51;;;;;;;;;;;;;;;;;;5028424;28;19925;-77
2024/01/14 15:50:16;;;;;;;;;;;;;;;;;;5021793;28;20043;-77
2024/01/14 15:52:41;;;;;;;;;;;;;;;;;;5024351;28;19928;-77
2024/01/14 15:55:06;;;;;;;;;;;;;;;;;;5034522;28;19921;-77
2024/01/14 15:57:32;;;;;;;;;;;;;;;;;;5030565;28;19959;-77
2024/01/14 15:59:57;;;;;;;;;;;;;;;;;;5029874;28;20401;-77
2024/01/14 16:02:22;;;;;;;;;;;;;;;;;;5025767;28;19998;-76
2024/01/14 16:04:47;;;;;;;;;;;;;;;;;;5024449;28;20282;-78
2024/01/14 16:07:12;;;;;;;;;;;;;;;;;;5021122;28;20142;-77
2024/01/14 16:09:37;;;;;;;;;;;;;;;;;;5031366;28;19925;-78
2024/01/14 16:12:03;;;;;;;;;;;;;;;;;;5032007;28;19921;-77
2024/01/14 16:14:28;;;;;;;;;;;;;;;;;;5026297;28;19921;-77
2024/01/14 16:16:53;;;;;;;;;;;;;;;;;;5029119;28;19921;-82
2024/01/14 16:19:18;;;;;;;;;;;;;;;;;;5041870;28;19921;-77
2024/01/14 16:21:43;;;;;;;;;;;;;;;;;;5025454;28;19921;-76
2024/01/14 16:24:08;;;;;;;;;;;;;;;;;;5026986;28;19927;-77
2024/01/14 16:26:33;;;;;;;;;;;;;;;;;;5027635;28;19925;-77
2024/01/14 16:28:59;;;;;;;;;;;;;;;;;;5044843;28;19921;-78
2024/01/14 16:31:24;;;;;;;;;;;;;;;;;;5033252;28;20427;-77